Terminal Aerodrome Forecast
Issued by NWS

Current Version | Previous Version | Text Only | Print | Product List | Glossary On
Versions: 1 2 3 4 5 6 7 8 9 10 11 12 13 14 15 16 17 18 19 20 21 22 23 24 25 26 27 28 29 30 31 32 33 34 35 36 37 38 39 40 41 42 43 44 45 46 47 48 49 50
000
FTUS43 KMKX 281135
TAFUES
TAF
KUES 281135Z 2812/2912 31005KT P6SM SCT007 BKN014
      TEMPO 2812/2813 6SM -DZ BKN007
     FM281300 34005KT P6SM SCT008 OVC010
     FM281600 01007KT P6SM SCT015 OVC020
     FM281800 02009KT P6SM SCT015 OVC035
     FM282100 03010G18KT P6SM SCT025 BKN040 PROB30 2821/2822 4SM
      -SHRA BKN025
     FM290000 01009KT P6SM FEW030 SCT040=

USA.gov is the U.S. government's official web portal to all federal, state and local government web resources and services.